createdAt,value
2023-09-25T00:00:34.478Z,9.81
2023-09-25T00:03:04.085Z,9.80
2023-09-25T00:05:31.444Z,9.84
2023-09-25T00:07:58.708Z,9.86
2023-09-25T00:10:25.429Z,9.85
2023-09-25T00:12:51.964Z,9.90
2023-09-25T00:15:18.523Z,9.90
2023-09-25T00:17:45.298Z,9.89
2023-09-25T00:20:12.313Z,9.84
2023-09-25T00:22:39.731Z,9.82
2023-09-25T00:25:06.744Z,9.83
2023-09-25T00:27:33.496Z,9.87
2023-09-25T00:30:01.624Z,9.86
2023-09-25T00:32:28.556Z,9.88
2023-09-25T00:34:55.271Z,9.91
2023-09-25T00:37:22.319Z,10.00
2023-09-25T00:39:48.970Z,10.03
2023-09-25T00:42:15.515Z,10.03
2023-09-25T00:44:42.079Z,9.98
2023-09-25T00:47:09.981Z,9.84
2023-09-25T00:49:37.639Z,9.86
2023-09-25T00:52:04.670Z,9.93
2023-09-25T00:54:41.289Z,9.87
2023-09-25T00:57:09.687Z,9.86
2023-09-25T00:59:40.017Z,9.83
2023-09-25T01:02:06.571Z,9.82
2023-09-25T01:04:33.170Z,9.84
2023-09-25T01:07:00.754Z,9.85
2023-09-25T01:09:27.552Z,9.84
2023-09-25T01:11:54.052Z,9.83
2023-09-25T01:14:20.557Z,9.87
2023-09-25T01:16:47.157Z,9.80
2023-09-25T01:19:15.107Z,9.83
2023-09-25T01:21:46.175Z,9.78
2023-09-25T01:24:12.703Z,9.75
2023-09-25T01:26:39.303Z,9.72
2023-09-25T01:29:05.985Z,9.69
2023-09-25T01:31:32.550Z,9.73
2023-09-25T01:33:59.197Z,9.66
2023-09-25T01:36:25.836Z,9.64
2023-09-25T01:38:52.389Z,9.63
2023-09-25T01:41:18.885Z,9.63
2023-09-25T01:43:45.409Z,9.58
2023-09-25T01:46:11.924Z,9.59
2023-09-25T01:48:38.755Z,9.62
2023-09-25T01:51:10.191Z,9.59
2023-09-25T01:53:36.795Z,9.61
2023-09-25T01:56:16.200Z,9.64
2023-09-25T01:58:43.770Z,9.72
2023-09-25T02:01:10.997Z,9.75
2023-09-25T02:03:38.004Z,9.68
2023-09-25T02:06:05.571Z,9.67
2023-09-25T02:08:32.774Z,9.67
2023-09-25T02:10:59.699Z,9.67
2023-09-25T02:13:26.554Z,9.66
2023-09-25T02:15:53.228Z,9.64
2023-09-25T02:18:19.963Z,9.71
2023-09-25T02:20:47.274Z,9.66
2023-09-25T02:23:13.880Z,9.58
2023-09-25T02:25:40.750Z,9.59
2023-09-25T02:28:07.495Z,9.65
2023-09-25T02:30:34.231Z,9.68
2023-09-25T02:33:01.060Z,9.62
2023-09-25T02:35:28.202Z,9.59
2023-09-25T02:37:54.700Z,9.54
2023-09-25T02:40:21.242Z,9.50
2023-09-25T02:42:48.490Z,9.52
2023-09-25T02:45:15.757Z,9.51
2023-09-25T02:47:43.051Z,9.54
2023-09-25T02:50:10.816Z,9.60
2023-09-25T02:52:37.641Z,9.52
2023-09-25T02:55:04.906Z,9.57
2023-09-25T02:57:31.684Z,9.61
2023-09-25T02:59:58.280Z,9.56
2023-09-25T03:02:27.244Z,9.43
2023-09-25T03:04:55.351Z,9.38
2023-09-25T03:07:22.358Z,9.38
2023-09-25T03:09:48.952Z,9.51
2023-09-25T03:12:15.675Z,9.44
2023-09-25T03:14:42.200Z,9.42
2023-09-25T03:17:08.708Z,9.47
2023-09-25T03:19:36.625Z,9.49
2023-09-25T03:22:03.581Z,9.50
2023-09-25T03:24:31.506Z,9.51
2023-09-25T03:26:58.096Z,9.52
2023-09-25T03:29:24.843Z,9.54
2023-09-25T03:31:51.421Z,9.59
2023-09-25T03:34:17.921Z,9.57
2023-09-25T03:36:44.486Z,9.55
2023-09-25T03:39:11.592Z,9.58
2023-09-25T03:41:38.164Z,9.56
2023-09-25T03:44:05.595Z,9.56
2023-09-25T03:46:32.364Z,9.62
2023-09-25T03:49:02.806Z,9.63
2023-09-25T03:51:29.429Z,9.65
2023-09-25T03:53:55.916Z,9.74
2023-09-25T03:56:22.380Z,9.71
2023-09-25T03:58:49.040Z,9.73
2023-09-25T04:01:15.798Z,9.67
2023-09-25T04:03:42.387Z,9.67
2023-09-25T04:06:09.084Z,9.68
2023-09-25T04:08:35.569Z,9.67
2023-09-25T04:11:02.231Z,9.72
2023-09-25T04:13:28.712Z,9.71
2023-09-25T04:15:55.913Z,9.68
2023-09-25T04:18:22.693Z,9.68
2023-09-25T04:20:51.073Z,9.70
2023-09-25T04:23:17.754Z,9.63
2023-09-25T04:25:56.023Z,9.65
2023-09-25T04:28:22.501Z,9.61
2023-09-25T04:30:49.364Z,9.58
2023-09-25T04:33:15.986Z,9.58
2023-09-25T04:35:42.471Z,9.58
2023-09-25T04:38:09.253Z,9.56
2023-09-25T04:40:35.733Z,9.49
2023-09-25T04:43:02.427Z,9.59
2023-09-25T04:45:30.838Z,9.54
2023-09-25T04:47:58.633Z,9.52
2023-09-25T04:50:25.765Z,9.46
2023-09-25T04:52:53.132Z,9.53
2023-09-25T04:55:19.627Z,9.47
2023-09-25T04:57:48.227Z,9.48
2023-09-25T05:00:19.644Z,9.42
2023-09-25T05:02:48.052Z,9.37
2023-09-25T05:05:15.942Z,9.21
2023-09-25T05:07:48.904Z,9.17
2023-09-25T05:10:18.231Z,8.90
2023-09-25T05:12:45.413Z,8.76
2023-09-25T05:15:13.045Z,8.67
2023-09-25T05:17:41.383Z,8.58
2023-09-25T05:20:12.799Z,8.49
2023-09-25T05:22:40.477Z,8.45
2023-09-25T05:25:10.290Z,8.49
2023-09-25T05:27:37.590Z,8.45
2023-09-25T05:30:12.262Z,8.36
2023-09-25T05:32:41.322Z,8.35
2023-09-25T05:35:09.565Z,8.34
2023-09-25T05:37:36.796Z,8.31
2023-09-25T05:40:06.187Z,8.29
2023-09-25T05:42:33.205Z,8.26
2023-09-25T05:44:59.843Z,8.32
2023-09-25T05:47:26.361Z,8.31
2023-09-25T05:49:52.905Z,8.43
2023-09-25T05:52:19.373Z,8.48
2023-09-25T05:54:46.755Z,8.56
2023-09-25T05:57:13.621Z,8.88
2023-09-25T05:59:40.223Z,9.41
2023-09-25T06:02:08.236Z,10.02
2023-09-25T06:04:37.624Z,10.47
2023-09-25T06:07:04.946Z,11.07
2023-09-25T06:09:34.803Z,11.46
2023-09-25T06:12:01.920Z,11.79
2023-09-25T06:14:33.236Z,12.07
2023-09-25T06:17:01.206Z,12.52
2023-09-25T06:19:27.959Z,13.42
2023-09-25T06:21:55.234Z,14.06
2023-09-25T06:24:23.235Z,14.53
2023-09-25T06:26:50.679Z,14.79
2023-09-25T06:29:18.100Z,15.60
2023-09-25T06:31:59.738Z,15.90
2023-09-25T06:34:27.537Z,15.65
2023-09-25T06:36:55.214Z,16.26
2023-09-25T06:39:22.800Z,16.23
2023-09-25T06:41:50.026Z,16.77
2023-09-25T06:44:16.692Z,16.76
2023-09-25T06:46:44.687Z,16.32
2023-09-25T06:49:11.377Z,16.30
2023-09-25T06:51:37.936Z,17.42
2023-09-25T06:54:05.329Z,17.07
2023-09-25T06:56:31.929Z,17.24
2023-09-25T06:58:58.806Z,17.29
2023-09-25T07:01:25.530Z,17.41
2023-09-25T07:03:52.426Z,17.52
2023-09-25T07:06:19.253Z,18.12
2023-09-25T07:08:45.850Z,18.61
2023-09-25T07:11:12.786Z,19.21
2023-09-25T07:13:39.405Z,18.15
2023-09-25T07:16:07.572Z,18.57
2023-09-25T07:18:34.420Z,18.58
2023-09-25T07:21:01.374Z,18.89
2023-09-25T07:23:28.540Z,18.61
2023-09-25T07:26:06.256Z,18.92
2023-09-25T07:28:32.923Z,18.74
2023-09-25T07:31:02.102Z,18.69
2023-09-25T07:33:33.458Z,18.58
2023-09-25T07:36:02.868Z,18.88
2023-09-25T07:38:32.259Z,18.90
2023-09-25T07:41:01.359Z,19.54
2023-09-25T07:43:46.373Z,20.89
2023-09-25T07:46:20.548Z,21.18
2023-09-25T07:48:47.416Z,22.10
2023-09-25T07:51:14.630Z,21.63
2023-09-25T07:53:45.879Z,21.53
2023-09-25T07:56:12.769Z,22.15
2023-09-25T07:58:41.237Z,21.80
2023-09-25T08:01:10.367Z,22.05
2023-09-25T08:03:39.445Z,22.06
2023-09-25T08:06:07.307Z,21.46
2023-09-25T08:08:36.924Z,21.48
2023-09-25T08:11:04.108Z,21.67
2023-09-25T08:13:31.073Z,21.62
2023-09-25T08:16:05.688Z,21.41
2023-09-25T08:18:33.579Z,21.50
2023-09-25T08:21:00.649Z,21.73
2023-09-25T08:23:28.345Z,22.89
2023-09-25T08:25:55.356Z,22.15
2023-09-25T08:28:21.942Z,22.09
2023-09-25T08:30:48.766Z,20.94
2023-09-25T08:33:16.652Z,21.18
2023-09-25T08:35:44.366Z,21.18
2023-09-25T08:38:11.035Z,21.75
2023-09-25T08:40:44.695Z,22.47
2023-09-25T08:43:20.168Z,22.13
2023-09-25T08:45:49.253Z,21.87
2023-09-25T08:48:18.014Z,21.88
2023-09-25T08:50:46.858Z,22.53
2023-09-25T08:53:13.681Z,22.07
2023-09-25T08:55:40.722Z,22.16
2023-09-25T08:58:11.643Z,21.75
2023-09-25T09:00:40.071Z,21.56
2023-09-25T09:03:07.275Z,21.88
2023-09-25T09:05:33.923Z,21.22
2023-09-25T09:08:05.962Z,20.45
2023-09-25T09:10:33.430Z,20.12
2023-09-25T09:13:03.023Z,20.52
2023-09-25T09:15:31.553Z,19.84
2023-09-25T09:17:58.631Z,19.87
2023-09-25T09:20:37.647Z,19.71
2023-09-25T09:23:05.418Z,19.55
2023-09-25T09:25:32.838Z,19.59
2023-09-25T09:28:05.527Z,19.68
2023-09-25T09:30:32.250Z,19.57
2023-09-25T09:32:59.564Z,19.28
2023-09-25T09:35:26.731Z,19.47
2023-09-25T09:37:57.610Z,19.55
2023-09-25T09:40:25.693Z,19.03
2023-09-25T09:42:53.482Z,19.13
2023-09-25T09:45:21.984Z,19.37
2023-09-25T09:47:52.795Z,19.25
2023-09-25T09:50:23.910Z,19.17
2023-09-25T09:52:50.825Z,18.95
2023-09-25T09:55:20.337Z,19.01
2023-09-25T09:57:47.180Z,18.97
2023-09-25T10:00:14.912Z,18.77
2023-09-25T10:02:43.450Z,18.80
2023-09-25T10:05:14.483Z,18.94
2023-09-25T10:08:11.425Z,19.15
2023-09-25T10:10:42.584Z,19.13
2023-09-25T10:13:22.621Z,19.18
2023-09-25T10:16:07.560Z,19.32
2023-09-25T10:18:34.742Z,19.23
2023-09-25T10:21:09.715Z,19.24
2023-09-25T10:23:40.917Z,19.30
2023-09-25T10:26:17.580Z,19.21
2023-09-25T10:28:44.959Z,18.92
2023-09-25T10:31:26.358Z,18.87
2023-09-25T10:34:01.123Z,18.85
2023-09-25T10:36:52.233Z,19.00
2023-09-25T10:39:19.749Z,18.92
2023-09-25T10:42:00.096Z,19.10
2023-09-25T10:44:28.057Z,19.26
2023-09-25T10:46:54.594Z,19.41
2023-09-25T10:49:21.075Z,19.47
2023-09-25T10:51:48.448Z,19.44
2023-09-25T10:54:15.739Z,19.50
2023-09-25T10:56:42.837Z,19.71
2023-09-25T10:59:09.475Z,19.87
2023-09-25T11:01:36.514Z,19.67
2023-09-25T11:04:04.534Z,19.72
2023-09-25T11:06:31.475Z,19.82
2023-09-25T11:09:18.862Z,19.78
2023-09-25T11:11:46.221Z,19.80
2023-09-25T11:14:13.577Z,19.72
2023-09-25T11:16:41.227Z,19.66
2023-09-25T11:19:15.431Z,19.62
2023-09-25T11:21:47.106Z,19.81
2023-09-25T11:24:14.884Z,19.71
2023-09-25T11:26:44.159Z,19.63
2023-09-25T11:29:12.194Z,19.97
2023-09-25T11:31:59.309Z,19.52
2023-09-25T11:34:26.580Z,19.40
2023-09-25T11:36:53.429Z,19.58
2023-09-25T11:39:20.046Z,19.48
2023-09-25T11:41:47.034Z,19.66
2023-09-25T11:44:14.933Z,19.66
2023-09-25T11:46:45.509Z,19.41
2023-09-25T11:49:13.824Z,19.49
2023-09-25T11:51:40.855Z,19.24
2023-09-25T11:54:07.579Z,19.20
2023-09-25T11:56:34.569Z,19.29
2023-09-25T11:59:01.506Z,19.42
2023-09-25T12:01:29.301Z,19.53
2023-09-25T12:03:56.413Z,19.74
2023-09-25T12:06:25.627Z,19.63
2023-09-25T12:08:52.449Z,19.70
2023-09-25T12:11:19.117Z,19.68
2023-09-25T12:13:46.376Z,19.74
2023-09-25T12:16:13.746Z,19.76
2023-09-25T12:18:40.471Z,19.70
2023-09-25T12:21:08.412Z,19.70
2023-09-25T12:23:35.796Z,19.66
2023-09-25T12:26:02.543Z,19.88
2023-09-25T12:28:30.440Z,19.81
2023-09-25T12:30:57.916Z,19.64
2023-09-25T12:33:24.727Z,19.69
2023-09-25T12:35:51.732Z,20.15
2023-09-25T12:38:18.417Z,20.22
2023-09-25T12:40:44.902Z,19.92
2023-09-25T12:43:11.504Z,19.99
2023-09-25T12:45:39.356Z,19.99
2023-09-25T12:48:07.447Z,19.98
2023-09-25T12:50:34.776Z,19.87
2023-09-25T12:53:01.727Z,20.03
2023-09-25T12:55:32.771Z,19.89
2023-09-25T12:57:59.456Z,20.17
2023-09-25T13:00:26.609Z,20.02
2023-09-25T13:02:53.704Z,19.98
2023-09-25T13:05:20.487Z,19.83
2023-09-25T13:07:47.213Z,19.71
2023-09-25T13:10:14.035Z,19.63
2023-09-25T13:12:40.835Z,19.67
2023-09-25T13:15:08.099Z,19.84
2023-09-25T13:17:34.664Z,19.90
2023-09-25T13:20:01.916Z,19.92
2023-09-25T13:22:36.347Z,19.87
2023-09-25T13:25:05.689Z,19.79
2023-09-25T13:27:32.437Z,19.75
2023-09-25T13:29:59.024Z,19.75
2023-09-25T13:32:25.619Z,19.83
2023-09-25T13:34:52.416Z,19.93
2023-09-25T13:37:20.199Z,19.95
2023-09-25T13:39:46.948Z,19.84
2023-09-25T13:42:13.516Z,19.93
2023-09-25T13:44:41.369Z,19.97
2023-09-25T13:47:09.100Z,19.88
2023-09-25T13:49:35.664Z,19.79
2023-09-25T13:52:02.274Z,19.95
2023-09-25T13:54:28.796Z,19.80
2023-09-25T13:56:57.371Z,19.70
2023-09-25T13:59:23.830Z,19.71
2023-09-25T14:01:50.653Z,19.78
2023-09-25T14:04:17.508Z,19.88
2023-09-25T14:06:46.319Z,19.86
2023-09-25T14:09:13.554Z,19.88
2023-09-25T14:11:40.278Z,19.82
2023-09-25T14:14:07.843Z,19.64
2023-09-25T14:16:34.410Z,19.84
2023-09-25T14:19:01.172Z,19.65
2023-09-25T14:21:27.943Z,19.72
2023-09-25T14:23:54.587Z,19.72
2023-09-25T14:26:21.059Z,19.55
2023-09-25T14:28:47.605Z,19.55
2023-09-25T14:31:19.283Z,19.69
2023-09-25T14:33:46.068Z,19.65
2023-09-25T14:36:12.629Z,19.75
2023-09-25T14:38:39.142Z,19.81
2023-09-25T14:41:06.986Z,19.88
2023-09-25T14:43:33.569Z,19.89
2023-09-25T14:46:00.132Z,19.99
2023-09-25T14:48:26.814Z,19.93
2023-09-25T14:50:53.360Z,19.97
2023-09-25T14:53:19.855Z,20.02
2023-09-25T14:55:56.303Z,19.86
2023-09-25T14:58:24.291Z,19.97
2023-09-25T15:00:58.486Z,20.01
2023-09-25T15:03:25.643Z,20.02
2023-09-25T15:05:52.550Z,19.90
2023-09-25T15:08:21.748Z,19.75
2023-09-25T15:10:48.614Z,19.89
2023-09-25T15:13:15.106Z,19.99
2023-09-25T15:15:42.544Z,20.06
2023-09-25T15:18:09.145Z,20.03
2023-09-25T15:20:35.797Z,19.91
2023-09-25T15:23:02.298Z,19.83
2023-09-25T15:25:28.956Z,19.81
2023-09-25T15:27:55.511Z,19.82
2023-09-25T15:30:21.985Z,19.71
2023-09-25T15:32:48.548Z,19.76
2023-09-25T15:35:16.493Z,19.69
2023-09-25T15:37:43.037Z,19.51
2023-09-25T15:40:09.746Z,19.56
2023-09-25T15:42:36.334Z,19.51
2023-09-25T15:45:03.294Z,19.52
2023-09-25T15:47:30.462Z,19.39
2023-09-25T15:49:56.977Z,19.38
2023-09-25T15:52:23.452Z,19.39
2023-09-25T15:54:49.989Z,19.45
2023-09-25T15:57:16.894Z,19.48
2023-09-25T15:59:43.827Z,19.47
2023-09-25T16:02:10.566Z,19.51
2023-09-25T16:04:38.104Z,19.45
2023-09-25T16:07:06.861Z,19.44
2023-09-25T16:09:33.749Z,19.39
2023-09-25T16:12:01.305Z,19.40
2023-09-25T16:14:29.691Z,19.37
2023-09-25T16:16:56.250Z,19.30
2023-09-25T16:19:23.187Z,19.26
2023-09-25T16:21:49.898Z,19.21
2023-09-25T16:24:16.860Z,19.16
2023-09-25T16:26:43.411Z,19.11
2023-09-25T16:29:09.918Z,18.99
2023-09-25T16:31:36.397Z,18.91
2023-09-25T16:34:03.171Z,18.77
2023-09-25T16:36:29.770Z,18.64
2023-09-25T16:38:56.588Z,18.54
2023-09-25T16:41:23.090Z,18.50
2023-09-25T16:43:49.772Z,18.36
2023-09-25T16:46:16.535Z,18.28
2023-09-25T16:48:43.278Z,18.12
2023-09-25T16:51:09.845Z,18.01
2023-09-25T16:53:36.392Z,17.88
2023-09-25T16:56:04.036Z,17.74
2023-09-25T16:58:30.614Z,17.61
2023-09-25T17:00:57.217Z,17.51
2023-09-25T17:03:23.813Z,17.41
2023-09-25T17:05:50.792Z,17.23
2023-09-25T17:08:17.264Z,17.12
2023-09-25T17:10:43.792Z,17.02
2023-09-25T17:13:11.035Z,16.87
2023-09-25T17:15:41.515Z,16.73
2023-09-25T17:18:08.574Z,16.62
2023-09-25T17:20:35.131Z,16.51
2023-09-25T17:23:01.679Z,16.34
2023-09-25T17:25:28.283Z,16.27
2023-09-25T17:27:54.924Z,16.19
2023-09-25T17:30:24.862Z,16.04
2023-09-25T17:32:51.531Z,15.85
2023-09-25T17:35:20.397Z,15.73
2023-09-25T17:37:48.452Z,15.60
2023-09-25T17:40:15.210Z,15.51
2023-09-25T17:42:41.863Z,15.43
2023-09-25T17:45:09.098Z,15.36
2023-09-25T17:47:37.712Z,15.28
2023-09-25T17:50:05.253Z,15.28
2023-09-25T17:52:31.893Z,15.17
2023-09-25T17:54:58.533Z,15.08
2023-09-25T17:57:25.140Z,15.11
2023-09-25T17:59:51.932Z,14.98
2023-09-25T18:02:18.870Z,14.90
2023-09-25T18:04:45.662Z,14.81
2023-09-25T18:07:12.433Z,14.82
2023-09-25T18:09:39.135Z,14.96
2023-09-25T18:12:05.994Z,14.95
2023-09-25T18:14:32.449Z,14.82
2023-09-25T18:16:59.763Z,14.65
2023-09-25T18:19:26.719Z,14.55
2023-09-25T18:21:53.300Z,14.43
2023-09-25T18:24:20.120Z,14.38
2023-09-25T18:26:46.887Z,14.35
2023-09-25T18:29:13.415Z,14.30
2023-09-25T18:31:40.469Z,14.25
2023-09-25T18:34:07.026Z,14.14
2023-09-25T18:36:33.633Z,14.10
2023-09-25T18:39:00.160Z,14.03
2023-09-25T18:41:27.595Z,14.00
2023-09-25T18:43:54.096Z,14.01
2023-09-25T18:46:22.413Z,13.96
2023-09-25T18:48:49.001Z,13.93
2023-09-25T18:51:16.309Z,13.88
2023-09-25T18:53:42.864Z,13.83
2023-09-25T18:56:09.411Z,13.81
2023-09-25T18:58:35.940Z,13.71
2023-09-25T19:01:02.643Z,13.66
2023-09-25T19:03:30.518Z,13.59
2023-09-25T19:05:56.986Z,13.61
2023-09-25T19:08:23.673Z,13.61
2023-09-25T19:10:50.349Z,13.58
2023-09-25T19:13:34.889Z,13.56
2023-09-25T19:16:08.279Z,13.52
2023-09-25T19:18:37.805Z,13.47
2023-09-25T19:21:04.642Z,13.46
2023-09-25T19:23:31.462Z,13.41
2023-09-25T19:25:58.254Z,13.36
2023-09-25T19:28:24.822Z,13.30
2023-09-25T19:30:51.593Z,13.28
2023-09-25T19:33:18.404Z,13.26
2023-09-25T19:35:45.552Z,13.19
2023-09-25T19:38:12.076Z,13.19
2023-09-25T19:40:38.622Z,13.15
2023-09-25T19:43:06.185Z,13.12
2023-09-25T19:45:33.503Z,13.08
2023-09-25T19:48:00.195Z,13.06
2023-09-25T19:50:26.694Z,12.98
2023-09-25T19:52:53.187Z,12.92
2023-09-25T19:55:19.907Z,12.95
2023-09-25T19:57:47.191Z,12.87
2023-09-25T20:00:14.239Z,12.83
2023-09-25T20:02:41.513Z,12.75
2023-09-25T20:05:08.728Z,12.71
2023-09-25T20:07:35.381Z,12.65
2023-09-25T20:10:02.204Z,12.60
2023-09-25T20:12:28.742Z,12.57
2023-09-25T20:14:55.372Z,12.55
2023-09-25T20:17:21.916Z,12.43
2023-09-25T20:19:48.648Z,12.39
2023-09-25T20:22:15.160Z,12.39
2023-09-25T20:24:44.257Z,12.36
2023-09-25T20:27:10.824Z,12.35
2023-09-25T20:29:37.313Z,12.36
2023-09-25T20:32:04.177Z,12.31
2023-09-25T20:34:30.717Z,12.28
2023-09-25T20:36:57.263Z,12.25
2023-09-25T20:39:23.839Z,12.23
2023-09-25T20:41:50.421Z,12.21
2023-09-25T20:44:16.909Z,12.17
2023-09-25T20:46:49.316Z,12.17
2023-09-25T20:49:16.458Z,12.18
2023-09-25T20:51:43.172Z,12.13
2023-09-25T20:54:10.984Z,12.06
2023-09-25T20:56:37.978Z,12.05
2023-09-25T20:59:04.641Z,12.07
2023-09-25T21:01:34.589Z,12.02
2023-09-25T21:04:01.393Z,11.98
2023-09-25T21:06:28.437Z,11.99
2023-09-25T21:08:55.011Z,11.92
2023-09-25T21:11:21.479Z,11.92
2023-09-25T21:13:47.996Z,11.91
2023-09-25T21:16:14.538Z,11.91
2023-09-25T21:18:41.295Z,11.90
2023-09-25T21:21:08.888Z,11.82
2023-09-25T21:23:37.238Z,11.78
2023-09-25T21:26:03.741Z,11.78
2023-09-25T21:28:30.226Z,11.76
2023-09-25T21:30:56.859Z,11.74
2023-09-25T21:33:23.359Z,11.70
2023-09-25T21:35:50.339Z,11.73
2023-09-25T21:38:18.090Z,11.71
2023-09-25T21:40:44.734Z,11.73
2023-09-25T21:43:12.131Z,11.71
2023-09-25T21:45:39.030Z,11.60
2023-09-25T21:48:06.194Z,11.53
2023-09-25T21:50:32.674Z,11.48
2023-09-25T21:52:59.214Z,11.38
2023-09-25T21:55:26.038Z,11.38
2023-09-25T21:57:53.420Z,11.33
2023-09-25T22:00:24.730Z,11.33
2023-09-25T22:02:52.303Z,11.28
2023-09-25T22:05:19.920Z,11.24
2023-09-25T22:07:46.524Z,11.20
2023-09-25T22:10:14.018Z,11.19
2023-09-25T22:12:42.109Z,11.18
2023-09-25T22:15:09.696Z,11.13
2023-09-25T22:17:36.290Z,11.16
2023-09-25T22:20:05.805Z,11.11
2023-09-25T22:22:32.708Z,11.09
2023-09-25T22:25:00.506Z,11.06
2023-09-25T22:27:27.205Z,11.06
2023-09-25T22:29:53.893Z,11.13
2023-09-25T22:32:20.533Z,11.05
2023-09-25T22:34:47.051Z,10.95
2023-09-25T22:37:13.882Z,10.89
2023-09-25T22:39:41.110Z,10.89
2023-09-25T22:42:07.641Z,10.85
2023-09-25T22:44:34.421Z,10.83
2023-09-25T22:47:01.021Z,10.84
2023-09-25T22:49:27.719Z,10.79
2023-09-25T22:51:54.394Z,10.68
2023-09-25T22:54:21.269Z,10.69
2023-09-25T22:56:47.851Z,10.67
2023-09-25T22:59:14.331Z,10.64
2023-09-25T23:01:44.735Z,10.69
2023-09-25T23:04:11.453Z,10.61
2023-09-25T23:06:38.066Z,10.55
2023-09-25T23:09:05.922Z,10.55
2023-09-25T23:11:32.516Z,10.54
2023-09-25T23:13:59.027Z,10.52
2023-09-25T23:16:25.741Z,10.50
2023-09-25T23:18:52.400Z,10.51
2023-09-25T23:21:18.932Z,10.49
2023-09-25T23:23:45.438Z,10.47
2023-09-25T23:26:11.899Z,10.46
2023-09-25T23:28:38.703Z,10.41
2023-09-25T23:31:05.843Z,10.36
2023-09-25T23:33:32.469Z,10.31
2023-09-25T23:35:58.921Z,10.30
2023-09-25T23:38:25.500Z,10.30
2023-09-25T23:40:52.043Z,10.24
2023-09-25T23:43:18.711Z,10.22
2023-09-25T23:45:45.352Z,10.19
2023-09-25T23:48:11.975Z,10.15
2023-09-25T23:50:39.231Z,10.12
2023-09-25T23:53:06.029Z,10.14
2023-09-25T23:55:32.582Z,10.12
2023-09-25T23:57:59.282Z,10.12
